Parkhill, Pennsylvania
Current Conditions -  °F | °C
As of 2:54 AM on Tuesday 21 Oct 2014 (Local Time) from KJST Reporting Station
Overcast Overcast  
Wind Chill: 45°   Ceiling: 1900
Heat Index: 49°   Visibility: 10mi
Dew Point: 42°   Wind: 9mph
Humidity: 77%   Direction: 210°SSW
Pressure: 29.85"   Gusts: NA
Location:  40.36°N, 78.87°W
Report Text: KJST 210654Z AUTO 21008KT 10SM BKN019 OVC024 09/06 A2985 RMK AO2 SLP109 T00940056
Loading
Personal Weather Stations






























Interactive Weather Map
Tropical Storm Tracking
New forecast layout! Learn more

10-Day Weather Forecast

Advertisements
Track Severe Weather on mobile